createdAt,value
2022-11-05T00:02:12.714Z,24.75
2022-11-05T00:04:59.347Z,23.95
2022-11-05T00:07:50.836Z,22.17
2022-11-05T00:10:30.047Z,23.50
2022-11-05T00:13:18.510Z,24.63
2022-11-05T00:16:05.015Z,22.52
2022-11-05T00:18:32.056Z,21.48
2022-11-05T00:20:59.345Z,21.67
2022-11-05T00:23:45.220Z,21.98
2022-11-05T00:26:13.508Z,21.02
2022-11-05T00:28:43.915Z,19.90
2022-11-05T00:31:14.667Z,19.85
2022-11-05T00:33:43.261Z,20.85
2022-11-05T00:36:11.446Z,20.95
2022-11-05T00:38:38.414Z,20.17
2022-11-05T00:41:05.461Z,19.67
2022-11-05T00:43:51.005Z,19.13
2022-11-05T00:46:17.905Z,16.77
2022-11-05T00:49:03.330Z,18.90
2022-11-05T00:51:30.417Z,17.88
2022-11-05T00:53:57.367Z,17.38
2022-11-05T00:56:24.166Z,16.75
2022-11-05T00:58:51.013Z,19.27
2022-11-05T01:01:17.970Z,18.10
2022-11-05T01:03:50.381Z,16.92
2022-11-05T01:06:18.296Z,17.40
2022-11-05T01:08:46.619Z,18.88
2022-11-05T01:11:33.497Z,19.00
2022-11-05T01:14:11.523Z,18.15
2022-11-05T01:16:39.934Z,18.58
2022-11-05T01:19:09.091Z,16.05
2022-11-05T01:21:36.937Z,17.30
2022-11-05T01:24:04.517Z,17.10
2022-11-05T01:26:31.896Z,17.13
2022-11-05T01:29:02.515Z,15.95
2022-11-05T01:31:29.691Z,15.75
2022-11-05T01:33:56.601Z,16.67
2022-11-05T01:36:23.588Z,16.92
2022-11-05T01:38:50.603Z,16.23
2022-11-05T01:41:17.610Z,16.73
2022-11-05T01:43:54.672Z,17.50
2022-11-05T01:46:31.909Z,17.90
2022-11-05T01:49:10.736Z,16.25
2022-11-05T01:51:38.841Z,17.77
2022-11-05T01:54:12.089Z,16.92
2022-11-05T01:56:47.318Z,18.52
2022-11-05T01:59:24.073Z,19.67
2022-11-05T02:01:51.643Z,19.17
2022-11-05T02:04:45.769Z,18.73
2022-11-05T02:07:13.416Z,18.30
2022-11-05T02:10:02.533Z,19.15
2022-11-05T02:12:30.702Z,17.23
2022-11-05T02:14:58.346Z,17.15
2022-11-05T02:17:33.414Z,16.55
2022-11-05T02:20:23.551Z,17.55
2022-11-05T02:22:50.449Z,16.98
2022-11-05T02:25:26.383Z,17.40
2022-11-05T02:27:59.273Z,15.25
2022-11-05T02:30:45.204Z,17.17
2022-11-05T02:33:23.458Z,13.98
2022-11-05T02:36:23.040Z,14.10
2022-11-05T02:39:16.465Z,14.07
2022-11-05T02:42:01.929Z,14.38
2022-11-05T02:44:56.819Z,14.93
2022-11-05T02:47:27.330Z,12.65
2022-11-05T02:50:09.589Z,13.55
2022-11-05T02:52:59.811Z,12.80
2022-11-05T02:55:38.783Z,12.23
2022-11-05T02:58:07.088Z,12.82
2022-11-05T03:00:45.841Z,11.65
2022-11-05T03:03:22.979Z,12.02
2022-11-05T03:06:09.046Z,11.75
2022-11-05T03:11:28.851Z,11.02
2022-11-05T03:14:10.264Z,10.55
2022-11-05T03:16:41.860Z,10.95
2022-11-05T03:19:44.976Z,12.50
2022-11-05T03:22:16.625Z,10.48
2022-11-05T03:24:48.884Z,10.70
2022-11-05T03:27:20.128Z,11.00
2022-11-05T03:29:52.402Z,11.65
2022-11-05T03:32:22.658Z,11.70
2022-11-05T03:34:59.011Z,11.90
2022-11-05T03:37:28.900Z,10.88
2022-11-05T03:40:00.538Z,12.27
2022-11-05T03:42:32.270Z,12.10
2022-11-05T03:45:03.030Z,12.15
2022-11-05T03:47:36.811Z,12.63
2022-11-05T03:50:15.059Z,13.07
2022-11-05T03:52:53.670Z,12.10
2022-11-05T03:55:26.389Z,12.10
2022-11-05T03:57:55.919Z,13.77
2022-11-05T04:00:23.570Z,13.68
2022-11-05T04:02:50.959Z,14.15
2022-11-05T04:05:18.103Z,14.63
2022-11-05T04:08:03.624Z,14.43
2022-11-05T04:11:06.066Z,14.20
2022-11-05T04:13:33.763Z,17.27
2022-11-05T04:16:19.184Z,16.08
2022-11-05T04:18:46.091Z,18.17
2022-11-05T04:21:31.757Z,18.42
2022-11-05T04:24:10.624Z,18.33
2022-11-05T04:26:40.940Z,18.45
2022-11-05T04:29:26.939Z,16.02
2022-11-05T04:34:22.294Z,15.13
2022-11-05T04:36:50.797Z,14.85
2022-11-05T04:39:18.936Z,15.45
2022-11-05T04:41:48.384Z,14.60
2022-11-05T04:44:16.795Z,13.82
2022-11-05T04:46:44.067Z,14.38
2022-11-05T04:49:10.964Z,13.52
2022-11-05T04:51:37.970Z,14.50
2022-11-05T04:54:04.899Z,14.57
2022-11-05T04:56:32.016Z,13.90
2022-11-05T04:58:59.027Z,13.82
2022-11-05T05:01:26.200Z,13.18
2022-11-05T05:03:54.696Z,13.85
2022-11-05T05:06:22.142Z,12.57
2022-11-05T05:08:50.555Z,14.32
2022-11-05T05:11:20.198Z,13.25
2022-11-05T05:13:48.111Z,13.80
2022-11-05T05:16:21.478Z,13.90
2022-11-05T05:18:49.072Z,12.50
2022-11-05T05:21:36.865Z,13.20
2022-11-05T05:24:12.181Z,13.18
2022-11-05T05:26:44.306Z,13.07
2022-11-05T05:29:12.058Z,13.13
2022-11-05T05:31:39.959Z,13.02
2022-11-05T05:34:08.438Z,12.98
2022-11-05T05:36:35.749Z,12.15
2022-11-05T05:39:06.407Z,13.13
2022-11-05T05:41:33.645Z,14.40
2022-11-05T05:44:00.762Z,14.55
2022-11-05T05:46:27.613Z,13.88
2022-11-05T05:48:54.559Z,14.75
2022-11-05T05:51:21.808Z,14.80
2022-11-05T05:53:48.763Z,13.02
2022-11-05T05:56:19.384Z,12.75
2022-11-05T05:58:47.319Z,15.13
2022-11-05T06:01:19.267Z,14.00
2022-11-05T06:03:48.539Z,15.60
2022-11-05T06:06:19.966Z,14.18
2022-11-05T06:08:47.921Z,13.82
2022-11-05T06:11:15.278Z,14.65
2022-11-05T06:13:42.187Z,13.63
2022-11-05T06:16:10.349Z,11.88
2022-11-05T06:18:37.493Z,12.75
2022-11-05T06:21:12.116Z,11.88
2022-11-05T06:23:41.479Z,13.30
2022-11-05T06:26:11.743Z,12.35
2022-11-05T06:28:38.871Z,12.38
2022-11-05T06:31:06.190Z,11.90
2022-11-05T06:33:33.213Z,12.23
2022-11-05T06:36:04.130Z,12.20
2022-11-05T06:38:36.164Z,12.38
2022-11-05T06:41:09.780Z,12.82
2022-11-05T06:43:38.234Z,12.90
2022-11-05T06:46:05.648Z,13.25
2022-11-05T06:48:33.207Z,12.68
2022-11-05T06:51:00.154Z,15.27
2022-11-05T06:53:27.644Z,14.90
2022-11-05T06:55:54.593Z,14.77
2022-11-05T06:58:21.747Z,14.75
2022-11-05T07:00:48.836Z,15.13
2022-11-05T07:03:16.421Z,14.02
2022-11-05T07:05:48.039Z,15.05
2022-11-05T07:08:15.324Z,15.07
2022-11-05T07:10:42.289Z,13.52
2022-11-05T07:13:09.492Z,13.07
2022-11-05T07:15:37.480Z,12.75
2022-11-05T07:18:07.566Z,11.82
2022-11-05T07:20:35.311Z,13.02
2022-11-05T07:23:08.464Z,12.00
2022-11-05T07:25:36.236Z,12.98
2022-11-05T07:28:03.987Z,12.75
2022-11-05T07:30:32.595Z,11.15
2022-11-05T07:32:59.811Z,12.75
2022-11-05T07:35:27.140Z,12.80
2022-11-05T07:37:55.283Z,11.13
2022-11-05T07:40:24.159Z,11.75
2022-11-05T07:42:56.664Z,13.30
2022-11-05T07:45:24.755Z,13.48
2022-11-05T07:47:54.138Z,15.05
2022-11-05T07:50:23.754Z,14.02
2022-11-05T07:52:51.707Z,12.63
2022-11-05T07:55:20.090Z,12.88
2022-11-05T07:57:49.314Z,13.25
2022-11-05T08:00:22.174Z,14.73
2022-11-05T08:03:08.261Z,14.48
2022-11-05T08:05:37.779Z,15.23
2022-11-05T08:08:06.458Z,13.73
2022-11-05T08:10:37.328Z,13.32
2022-11-05T08:13:10.263Z,14.63
2022-11-05T08:15:37.977Z,15.80
2022-11-05T08:18:07.420Z,16.25
2022-11-05T08:20:38.814Z,16.30
2022-11-05T08:23:06.036Z,18.08
2022-11-05T08:25:33.558Z,19.55
2022-11-05T08:28:13.051Z,16.02
2022-11-05T08:30:43.904Z,16.17
2022-11-05T08:33:13.413Z,16.10
2022-11-05T08:35:43.507Z,14.75
2022-11-05T08:38:15.679Z,14.40
2022-11-05T08:40:44.028Z,14.63
2022-11-05T08:43:13.064Z,15.77
2022-11-05T08:45:41.469Z,15.48
2022-11-05T08:48:11.331Z,14.70
2022-11-05T08:50:39.459Z,15.27
2022-11-05T08:53:08.734Z,14.63
2022-11-05T08:55:38.551Z,13.85
2022-11-05T08:58:18.299Z,15.63
2022-11-05T09:01:06.504Z,14.23
2022-11-05T09:03:34.851Z,14.35
2022-11-05T09:06:03.225Z,14.93
2022-11-05T09:08:30.242Z,15.07
2022-11-05T09:10:57.330Z,16.27
2022-11-05T09:13:25.288Z,17.02
2022-11-05T09:16:02.741Z,17.33
2022-11-05T09:18:30.976Z,17.80
2022-11-05T09:20:58.116Z,17.40
2022-11-05T09:23:25.496Z,16.65
2022-11-05T09:25:52.687Z,18.42
2022-11-05T09:28:25.712Z,17.25
2022-11-05T09:31:00.865Z,16.48
2022-11-05T09:33:28.403Z,17.77
2022-11-05T09:35:55.597Z,18.25
2022-11-05T09:38:25.825Z,18.77
2022-11-05T09:41:03.140Z,18.80
2022-11-05T09:43:42.325Z,17.73
2022-11-05T09:46:16.216Z,16.92
2022-11-05T09:48:48.820Z,16.20
2022-11-05T09:51:23.725Z,15.82
2022-11-05T09:53:54.466Z,18.65
2022-11-05T09:56:24.379Z,18.88
2022-11-05T09:59:15.291Z,15.95
2022-11-05T10:01:45.593Z,17.27
2022-11-05T10:04:23.834Z,18.17
2022-11-05T10:07:41.052Z,17.33
2022-11-05T10:10:35.245Z,18.05
2022-11-05T10:14:14.835Z,17.40
2022-11-05T10:16:56.102Z,17.08
2022-11-05T10:19:58.389Z,15.63
2022-11-05T10:22:36.807Z,15.43
2022-11-05T10:25:18.343Z,16.33
2022-11-05T10:28:08.276Z,14.48
2022-11-05T10:30:35.748Z,15.38
2022-11-05T10:33:14.768Z,14.93
2022-11-05T10:36:09.432Z,15.90
2022-11-05T10:38:43.996Z,16.52
2022-11-05T10:41:22.651Z,15.45
2022-11-05T10:43:51.675Z,15.25
2022-11-05T10:46:47.979Z,14.57
2022-11-05T10:50:09.679Z,15.52
2022-11-05T10:53:11.662Z,16.60
2022-11-05T10:55:52.145Z,15.48
2022-11-05T10:58:31.832Z,14.85
2022-11-05T11:01:15.350Z,14.98
2022-11-05T11:03:48.640Z,15.93
2022-11-05T11:06:23.625Z,15.02
2022-11-05T11:16:02.061Z,16.83
2022-11-05T11:19:26.402Z,17.45
2022-11-05T11:22:32.044Z,18.33
2022-11-05T11:25:20.222Z,16.40
2022-11-05T11:27:52.805Z,18.27
2022-11-05T11:30:21.085Z,15.88
2022-11-05T11:32:49.833Z,16.23
2022-11-05T11:35:25.421Z,16.00
2022-11-05T11:40:29.550Z,15.50
2022-11-05T11:42:59.923Z,13.60
2022-11-05T11:45:54.517Z,14.45
2022-11-05T11:48:30.309Z,15.13
2022-11-05T11:51:00.146Z,15.45
2022-11-05T11:53:35.476Z,14.85
2022-11-05T11:56:15.845Z,14.63
2022-11-05T11:58:53.281Z,15.20
2022-11-05T12:01:51.422Z,14.23
2022-11-05T12:04:23.244Z,16.05
2022-11-05T12:07:43.223Z,14.48
2022-11-05T12:10:19.377Z,15.07
2022-11-05T12:13:27.674Z,16.58
2022-11-05T12:16:03.450Z,15.77
2022-11-05T12:18:54.115Z,15.70
2022-11-05T12:21:52.634Z,15.73
2022-11-05T12:24:41.010Z,16.85
2022-11-05T12:27:19.815Z,17.25
2022-11-05T12:30:08.969Z,19.30
2022-11-05T12:32:44.946Z,17.52
2022-11-05T12:35:49.838Z,17.20
2022-11-05T12:38:31.294Z,18.05
2022-11-05T12:41:22.810Z,18.23
2022-11-05T12:44:05.054Z,19.30
2022-11-05T12:47:00.259Z,19.05
2022-11-05T12:50:01.060Z,19.65
2022-11-05T12:52:49.647Z,19.05
2022-11-05T12:55:24.412Z,17.15
2022-11-05T12:57:59.409Z,17.27
2022-11-05T13:00:28.184Z,17.83
2022-11-05T13:03:21.679Z,18.15
2022-11-05T13:06:04.550Z,17.67
2022-11-05T13:09:11.309Z,17.08
2022-11-05T13:11:45.638Z,15.40
2022-11-05T13:14:15.027Z,14.10
2022-11-05T13:16:44.575Z,13.65
2022-11-05T13:19:14.586Z,13.63
2022-11-05T13:21:44.318Z,14.40
2022-11-05T13:24:53.399Z,14.43
2022-11-05T13:27:26.346Z,14.88
2022-11-05T13:29:59.791Z,13.60
2022-11-05T13:32:35.752Z,14.80
2022-11-05T13:35:08.740Z,14.40
2022-11-05T13:37:59.239Z,13.07
2022-11-05T13:40:43.087Z,13.07
2022-11-05T13:43:51.586Z,13.45
2022-11-05T13:46:30.717Z,14.15
2022-11-05T13:49:18.901Z,13.98
2022-11-05T13:51:53.247Z,13.85
2022-11-05T13:54:49.956Z,14.32
2022-11-05T13:57:39.050Z,12.43
2022-11-05T14:00:23.275Z,13.48
2022-11-05T14:02:56.601Z,11.75
2022-11-05T14:05:40.420Z,12.98
2022-11-05T14:08:20.221Z,13.32
2022-11-05T14:11:00.593Z,13.50
2022-11-05T14:13:38.480Z,13.32
2022-11-05T14:16:16.826Z,12.77
2022-11-05T14:18:53.111Z,13.95
2022-11-05T14:21:26.299Z,13.57
2022-11-05T14:23:55.811Z,12.73
2022-11-05T14:26:31.764Z,13.18
2022-11-05T14:29:04.618Z,11.95
2022-11-05T14:32:08.332Z,12.40
2022-11-05T14:34:42.731Z,12.55
2022-11-05T14:37:12.978Z,13.45
2022-11-05T14:39:41.456Z,12.50
2022-11-05T14:42:22.292Z,13.00
2022-11-05T14:45:00.947Z,13.38
2022-11-05T14:47:33.165Z,14.07
2022-11-05T14:50:08.420Z,13.75
2022-11-05T14:52:37.592Z,12.70
2022-11-05T14:55:05.866Z,13.85
2022-11-05T14:57:44.723Z,14.02
2022-11-05T15:00:29.907Z,12.98
2022-11-05T15:03:24.154Z,12.67
2022-11-05T15:05:52.574Z,12.80
2022-11-05T15:08:35.089Z,12.95
2022-11-05T15:11:13.536Z,12.73
2022-11-05T15:13:55.714Z,13.57
2022-11-05T15:16:31.693Z,13.50
2022-11-05T15:19:00.197Z,14.38
2022-11-05T15:21:31.935Z,12.40
2022-11-05T15:23:59.457Z,13.00
2022-11-05T15:26:41.799Z,14.07
2022-11-05T15:29:22.243Z,15.25
2022-11-05T15:31:50.518Z,14.90
2022-11-05T15:34:21.865Z,15.13
2022-11-05T15:36:52.578Z,15.32
2022-11-05T15:39:42.041Z,14.52
2022-11-05T15:42:24.462Z,13.27
2022-11-05T15:44:54.067Z,14.50
2022-11-05T15:47:30.799Z,14.65
2022-11-05T15:50:02.175Z,14.98
2022-11-05T15:52:36.761Z,14.52
2022-11-05T15:55:13.301Z,14.23
2022-11-05T15:57:59.608Z,14.73
2022-11-05T16:00:30.514Z,14.45
2022-11-05T16:03:16.284Z,15.90
2022-11-05T16:05:48.829Z,15.48
2022-11-05T16:08:24.209Z,13.57
2022-11-05T16:10:54.475Z,15.77
2022-11-05T16:13:23.320Z,15.27
2022-11-05T16:16:03.689Z,14.95
2022-11-05T16:18:34.743Z,15.60
2022-11-05T16:21:05.035Z,16.48
2022-11-05T16:23:45.654Z,17.80
2022-11-05T16:27:00.461Z,18.15
2022-11-05T16:29:40.325Z,17.75
2022-11-05T16:32:16.667Z,16.95
2022-11-05T16:34:48.968Z,17.38
2022-11-05T16:37:21.645Z,19.65
2022-11-05T16:39:48.799Z,18.73
2022-11-05T16:42:24.957Z,20.23
2022-11-05T16:44:53.970Z,19.77
2022-11-05T16:47:22.121Z,21.95
2022-11-05T16:49:49.780Z,21.33
2022-11-05T16:52:17.054Z,19.02
2022-11-05T16:54:44.394Z,21.60
2022-11-05T16:57:33.389Z,20.23
2022-11-05T17:00:01.271Z,19.83
2022-11-05T17:02:29.317Z,20.40
2022-11-05T17:04:56.680Z,21.15
2022-11-05T17:07:27.049Z,21.50
2022-11-05T17:09:54.169Z,21.02
2022-11-05T17:12:21.382Z,21.48
2022-11-05T17:14:48.779Z,19.80
2022-11-05T17:17:22.601Z,19.33
2022-11-05T17:19:51.514Z,20.20
2022-11-05T17:22:19.525Z,19.38
2022-11-05T17:24:47.147Z,18.75
2022-11-05T17:27:14.576Z,20.08
2022-11-05T17:29:42.158Z,17.42
2022-11-05T17:32:09.374Z,19.27
2022-11-05T17:34:36.715Z,18.95
2022-11-05T17:37:03.814Z,19.60
2022-11-05T17:39:31.947Z,18.83
2022-11-05T17:42:01.531Z,17.55
2022-11-05T17:44:28.699Z,17.40
2022-11-05T17:46:55.973Z,16.20
2022-11-05T17:49:23.105Z,15.93
2022-11-05T17:51:50.513Z,16.02
2022-11-05T17:54:17.623Z,16.95
2022-11-05T17:56:44.998Z,17.33
2022-11-05T17:59:13.361Z,16.25
2022-11-05T18:01:46.928Z,16.83
2022-11-05T18:04:17.127Z,17.85
2022-11-05T18:06:47.371Z,19.83
2022-11-05T18:09:15.746Z,16.63
2022-11-05T18:11:48.734Z,17.85
2022-11-05T18:14:23.692Z,18.27
2022-11-05T18:16:55.646Z,16.23
2022-11-05T18:19:22.975Z,16.52
2022-11-05T18:21:51.203Z,18.35
2022-11-05T18:24:19.740Z,17.60
2022-11-05T18:26:47.402Z,16.90
2022-11-05T18:29:24.930Z,16.13
2022-11-05T18:32:07.772Z,16.77
2022-11-05T18:34:36.306Z,18.10
2022-11-05T18:37:03.966Z,17.08
2022-11-05T18:39:38.859Z,15.85
2022-11-05T18:42:10.342Z,15.70
2022-11-05T18:46:56.452Z,16.83
2022-11-05T18:48:04.518Z,16.60
2022-11-05T18:50:35.520Z,15.65
2022-11-05T18:53:05.583Z,17.92
2022-11-05T18:55:46.706Z,16.83
2022-11-05T18:58:24.472Z,16.55
2022-11-05T19:00:52.443Z,15.85
2022-11-05T19:03:34.917Z,15.98
2022-11-05T19:06:07.408Z,16.95
2022-11-05T19:08:46.890Z,16.25
2022-11-05T19:11:23.954Z,16.70
2022-11-05T19:13:58.862Z,17.10
2022-11-05T19:16:32.135Z,16.55
2022-11-05T19:19:21.259Z,15.80
2022-11-05T19:21:51.094Z,15.52
2022-11-05T19:24:24.221Z,17.35
2022-11-05T19:26:56.017Z,17.42
2022-11-05T19:29:23.642Z,15.70
2022-11-05T19:31:54.083Z,16.73
2022-11-05T19:34:23.783Z,15.82
2022-11-05T19:36:54.136Z,14.80
2022-11-05T19:40:02.445Z,16.30
2022-11-05T19:43:02.895Z,16.10
2022-11-05T19:45:44.462Z,16.92
2022-11-05T19:48:26.363Z,17.33
2022-11-05T19:50:55.906Z,16.90
2022-11-05T19:53:26.598Z,16.35
2022-11-05T19:55:53.750Z,16.75
2022-11-05T19:58:23.054Z,15.88
2022-11-05T20:00:59.332Z,16.83
2022-11-05T20:03:29.233Z,15.85
2022-11-05T20:06:06.007Z,15.75
2022-11-05T20:08:43.247Z,17.20
2022-11-05T20:11:20.711Z,17.25
2022-11-05T20:13:50.935Z,18.38
2022-11-05T20:16:25.856Z,18.95
2022-11-05T20:18:53.468Z,18.17
2022-11-05T20:21:20.762Z,16.92
2022-11-05T20:23:58.057Z,17.08
2022-11-05T20:26:26.816Z,17.45
2022-11-05T20:29:22.211Z,17.55
2022-11-05T20:32:02.236Z,17.90
2022-11-05T20:34:42.659Z,17.92
2022-11-05T20:37:51.102Z,16.92
2022-11-05T20:40:22.642Z,15.77
2022-11-05T20:42:49.638Z,17.10
2022-11-05T20:45:20.107Z,17.15
2022-11-05T20:47:47.427Z,17.95
2022-11-05T20:50:14.509Z,16.45
2022-11-05T20:52:41.656Z,16.95
2022-11-05T20:55:17.397Z,20.83
2022-11-05T20:57:45.821Z,18.35
2022-11-05T21:00:15.868Z,18.77
2022-11-05T21:02:43.390Z,19.10
2022-11-05T21:05:13.160Z,19.10
2022-11-05T21:07:44.592Z,19.65
2022-11-05T21:10:12.576Z,18.65
2022-11-05T21:12:42.174Z,19.65
2022-11-05T21:15:11.692Z,21.23
2022-11-05T21:17:47.835Z,20.13
2022-11-05T21:20:16.506Z,18.73
2022-11-05T21:22:45.596Z,19.60
2022-11-05T21:25:12.797Z,19.60
2022-11-05T21:27:43.708Z,19.20
2022-11-05T21:30:16.714Z,18.85
2022-11-05T21:32:44.346Z,20.65
2022-11-05T21:35:22.556Z,20.08
2022-11-05T21:37:57.016Z,19.45
2022-11-05T21:40:24.312Z,20.55
2022-11-05T21:42:51.406Z,19.33
2022-11-05T21:45:20.332Z,19.63
2022-11-05T21:47:50.674Z,20.60
2022-11-05T21:50:21.799Z,20.35
2022-11-05T21:53:07.730Z,20.85
2022-11-05T21:55:56.216Z,19.63
2022-11-05T21:58:42.209Z,20.45
2022-11-05T22:06:39.647Z,21.55
2022-11-05T22:09:07.031Z,20.35
2022-11-05T22:11:37.369Z,21.58
2022-11-05T22:14:05.069Z,22.17
2022-11-05T22:16:32.209Z,22.58
2022-11-05T22:18:59.957Z,21.80
2022-11-05T22:21:27.125Z,20.20
2022-11-05T22:23:54.351Z,22.80
2022-11-05T22:26:32.490Z,21.88
2022-11-05T22:29:08.873Z,20.90
2022-11-05T22:31:43.890Z,26.00
2022-11-05T22:34:12.046Z,22.83
2022-11-05T22:36:39.445Z,21.92
2022-11-05T22:39:06.810Z,20.00
2022-11-05T22:41:34.008Z,21.63
2022-11-05T22:44:04.095Z,22.27
2022-11-05T22:46:31.658Z,20.83
2022-11-05T22:48:59.892Z,20.70
2022-11-05T22:51:29.625Z,20.63
2022-11-05T22:53:57.009Z,22.27
2022-11-05T22:56:26.267Z,21.25
2022-11-05T22:58:53.518Z,21.02
2022-11-05T23:01:23.865Z,21.48
2022-11-05T23:03:53.271Z,21.52
2022-11-05T23:06:41.404Z,21.25
2022-11-05T23:09:34.871Z,20.73
2022-11-05T23:12:03.206Z,20.85
2022-11-05T23:14:30.404Z,21.40
2022-11-05T23:17:16.258Z,21.33
2022-11-05T23:20:01.573Z,21.80
2022-11-05T23:22:49.051Z,20.38
2022-11-05T23:25:19.232Z,22.02
2022-11-05T23:27:48.879Z,20.98
2022-11-05T23:30:24.030Z,22.45
2022-11-05T23:32:52.921Z,21.63
2022-11-05T23:35:42.303Z,22.13
2022-11-05T23:38:28.039Z,21.65
2022-11-05T23:41:13.706Z,20.60
2022-11-05T23:43:58.951Z,22.02
2022-11-05T23:46:46.654Z,20.17
2022-11-05T23:49:13.422Z,21.15
2022-11-05T23:51:42.519Z,20.58
2022-11-05T23:54:11.740Z,21.92
2022-11-05T23:56:41.398Z,21.88
2022-11-05T23:59:09.496Z,20.70
